createdAt,value
2023-01-22T00:01:18.040Z,51.01
2023-01-22T00:03:46.842Z,51.64
2023-01-22T00:06:13.713Z,50.93
2023-01-22T00:08:40.236Z,50.92
2023-01-22T00:11:06.712Z,51.08
2023-01-22T00:13:33.266Z,51.87
2023-01-22T00:16:00.038Z,51.18
2023-01-22T00:18:26.829Z,50.87
2023-01-22T00:20:53.960Z,50.66
2023-01-22T00:23:20.839Z,50.92
2023-01-22T00:25:47.539Z,50.33
2023-01-22T00:28:14.286Z,50.24
2023-01-22T00:30:40.735Z,50.88
2023-01-22T00:33:07.185Z,50.54
2023-01-22T00:35:35.388Z,50.71
2023-01-22T00:38:01.864Z,50.66
2023-01-22T00:40:28.386Z,50.07
2023-01-22T00:42:54.829Z,50.53
2023-01-22T00:45:21.358Z,50.63
2023-01-22T00:47:47.852Z,49.92
2023-01-22T00:50:14.347Z,50.00
2023-01-22T00:52:40.812Z,50.31
2023-01-22T00:55:07.503Z,50.54
2023-01-22T00:57:34.511Z,50.29
2023-01-22T01:00:01.039Z,50.63
2023-01-22T01:02:29.881Z,50.47
2023-01-22T01:04:56.902Z,50.37
2023-01-22T01:07:23.681Z,50.79
2023-01-22T01:09:50.641Z,50.56
2023-01-22T01:12:17.159Z,50.93
2023-01-22T01:14:43.691Z,50.43
2023-01-22T01:17:10.138Z,50.34
2023-01-22T01:19:36.560Z,50.22
2023-01-22T01:22:03.298Z,49.93
2023-01-22T01:24:29.767Z,50.23
2023-01-22T01:26:56.203Z,50.26
2023-01-22T01:29:22.667Z,50.14
2023-01-22T01:31:53.207Z,49.65
2023-01-22T01:34:19.822Z,49.57
2023-01-22T01:36:49.425Z,49.27
2023-01-22T01:39:16.506Z,49.29
2023-01-22T01:41:43.081Z,50.05
2023-01-22T01:44:17.135Z,49.53
2023-01-22T01:46:54.222Z,49.25
2023-01-22T01:49:25.768Z,49.33
2023-01-22T01:51:54.459Z,49.63
2023-01-22T01:54:20.917Z,49.92
2023-01-22T01:56:51.976Z,49.59
2023-01-22T01:59:20.171Z,49.53
2023-01-22T02:01:49.637Z,49.58
2023-01-22T02:04:16.956Z,49.70
2023-01-22T02:06:43.421Z,49.78
2023-01-22T02:09:09.871Z,52.64
2023-01-22T02:11:36.547Z,58.51
2023-01-22T02:14:05.530Z,57.74
2023-01-22T02:16:32.033Z,59.20
2023-01-22T02:18:58.528Z,65.15
2023-01-22T02:21:36.618Z,71.12
2023-01-22T02:24:08.046Z,69.88
2023-01-22T02:26:34.946Z,72.91
2023-01-22T02:29:01.482Z,74.11
2023-01-22T02:31:30.323Z,76.74
2023-01-22T02:33:57.976Z,72.56
2023-01-22T02:36:28.124Z,78.09
2023-01-22T02:38:54.861Z,79.26
2023-01-22T02:41:21.602Z,79.88
2023-01-22T02:43:48.092Z,79.36
2023-01-22T02:46:15.001Z,80.56
2023-01-22T02:48:41.486Z,80.76
2023-01-22T02:51:08.322Z,79.05
2023-01-22T02:53:34.916Z,78.22
2023-01-22T02:56:05.576Z,78.44
2023-01-22T02:58:32.062Z,78.04
2023-01-22T03:01:06.900Z,75.12
2023-01-22T03:03:33.410Z,73.16
2023-01-22T03:05:59.911Z,76.17
2023-01-22T03:08:26.655Z,75.54
2023-01-22T03:10:57.562Z,77.59
2023-01-22T03:13:43.186Z,79.50
2023-01-22T03:16:28.574Z,81.08
2023-01-22T03:19:13.956Z,82.60
2023-01-22T03:21:43.930Z,82.55
2023-01-22T03:24:10.399Z,82.17
2023-01-22T03:26:37.628Z,82.45
2023-01-22T03:29:04.138Z,82.72
2023-01-22T03:31:30.865Z,82.98
2023-01-22T03:33:57.604Z,82.09
2023-01-22T03:36:24.354Z,80.08
2023-01-22T03:38:54.338Z,79.35
2023-01-22T03:41:24.246Z,72.88
2023-01-22T03:43:50.902Z,71.50
2023-01-22T03:46:20.719Z,67.98
2023-01-22T03:48:52.184Z,64.76
2023-01-22T03:51:19.738Z,59.80
2023-01-22T03:53:46.875Z,58.36
2023-01-22T03:56:15.163Z,56.80
2023-01-22T03:58:42.275Z,57.12
2023-01-22T04:01:14.072Z,56.09
2023-01-22T04:03:41.167Z,55.63
2023-01-22T04:06:09.082Z,56.05
2023-01-22T04:08:37.443Z,55.73
2023-01-22T04:11:04.392Z,55.17
2023-01-22T04:13:32.271Z,54.10
2023-01-22T04:15:59.692Z,54.44
2023-01-22T04:18:44.529Z,55.21
2023-01-22T04:21:27.565Z,54.86
2023-01-22T04:23:56.714Z,54.70
2023-01-22T04:26:23.997Z,54.69
2023-01-22T04:28:50.625Z,55.12
2023-01-22T04:31:20.234Z,54.36
2023-01-22T04:34:19.639Z,53.52
2023-01-22T04:37:02.279Z,54.10
2023-01-22T04:39:31.837Z,55.04
2023-01-22T04:41:59.025Z,55.32
2023-01-22T04:44:25.844Z,54.23
2023-01-22T04:46:53.022Z,54.91
2023-01-22T04:49:19.908Z,55.12
2023-01-22T04:51:46.715Z,55.42
2023-01-22T04:54:13.187Z,55.46
2023-01-22T04:56:39.616Z,56.32
2023-01-22T04:59:06.169Z,56.34
2023-01-22T05:01:32.730Z,56.41
2023-01-22T05:04:00.889Z,56.85
2023-01-22T05:06:27.807Z,57.36
2023-01-22T05:08:54.357Z,58.18
2023-01-22T05:11:20.903Z,58.08
2023-01-22T05:13:52.839Z,58.28
2023-01-22T05:16:20.243Z,58.58
2023-01-22T05:18:47.243Z,58.35
2023-01-22T05:21:14.232Z,57.83
2023-01-22T05:23:40.696Z,59.28
2023-01-22T05:26:07.342Z,58.89
2023-01-22T05:28:43.227Z,59.37
2023-01-22T05:31:37.847Z,59.47
2023-01-22T05:34:07.710Z,58.98
2023-01-22T05:36:34.321Z,58.79
2023-01-22T05:39:09.448Z,58.03
2023-01-22T05:41:36.127Z,57.77
2023-01-22T05:44:03.400Z,58.28
2023-01-22T05:46:29.969Z,57.79
2023-01-22T05:49:15.301Z,58.22
2023-01-22T05:51:41.886Z,57.67
2023-01-22T05:54:08.475Z,57.76
2023-01-22T05:56:37.799Z,57.86
2023-01-22T05:59:04.909Z,57.37
2023-01-22T06:01:31.549Z,57.75
2023-01-22T06:03:59.340Z,57.51
2023-01-22T06:06:26.308Z,57.39
2023-01-22T06:08:55.238Z,57.74
2023-01-22T06:11:23.215Z,57.21
2023-01-22T06:13:49.870Z,56.66
2023-01-22T06:16:18.603Z,58.00
2023-01-22T06:19:08.614Z,58.15
2023-01-22T06:21:40.442Z,57.69
2023-01-22T06:24:07.859Z,57.23
2023-01-22T06:26:34.283Z,57.33
2023-01-22T06:29:01.355Z,57.30
2023-01-22T06:31:28.795Z,56.86
2023-01-22T06:33:55.630Z,56.20
2023-01-22T06:36:22.247Z,57.10
2023-01-22T06:38:48.815Z,56.79
2023-01-22T06:41:19.628Z,56.82
2023-01-22T06:43:49.144Z,57.11
2023-01-22T06:46:15.791Z,57.01
2023-01-22T06:49:01.581Z,56.26
2023-01-22T06:51:29.518Z,56.18
2023-01-22T06:53:55.971Z,56.66
2023-01-22T06:56:22.507Z,57.58
2023-01-22T06:58:50.181Z,57.07
2023-01-22T07:01:16.757Z,57.55
2023-01-22T07:03:43.278Z,57.49
2023-01-22T07:06:09.848Z,57.11
2023-01-22T07:08:36.995Z,57.84
2023-01-22T07:11:05.660Z,58.79
2023-01-22T07:13:33.448Z,59.03
2023-01-22T07:16:03.560Z,60.08
2023-01-22T07:18:30.535Z,59.61
2023-01-22T07:21:03.913Z,59.99
2023-01-22T07:23:30.897Z,61.62
2023-01-22T07:25:57.591Z,63.16
2023-01-22T07:28:24.080Z,64.01
2023-01-22T07:30:50.783Z,66.52
2023-01-22T07:33:17.295Z,64.56
2023-01-22T07:35:43.753Z,66.08
2023-01-22T07:38:10.284Z,67.52
2023-01-22T07:40:36.793Z,67.98
2023-01-22T07:43:06.882Z,68.44
2023-01-22T07:45:33.475Z,69.04
2023-01-22T07:48:00.399Z,69.48
2023-01-22T07:50:28.451Z,69.60
2023-01-22T07:52:55.417Z,69.42
2023-01-22T07:55:22.276Z,69.72
2023-01-22T07:57:48.902Z,67.83
2023-01-22T08:00:18.868Z,68.88
2023-01-22T08:02:45.543Z,69.48
2023-01-22T08:05:13.691Z,68.34
2023-01-22T08:07:40.149Z,68.75
2023-01-22T08:10:06.910Z,69.91
2023-01-22T08:12:33.346Z,70.65
2023-01-22T08:14:59.885Z,71.13
2023-01-22T08:17:26.311Z,71.27
2023-01-22T08:19:52.730Z,70.94
2023-01-22T08:22:19.232Z,73.56
2023-01-22T08:24:45.699Z,74.15
2023-01-22T08:27:12.167Z,75.46
2023-01-22T08:29:38.626Z,75.80
2023-01-22T08:32:06.238Z,74.16
2023-01-22T08:34:32.868Z,75.91
2023-01-22T08:36:59.286Z,76.62
2023-01-22T08:39:25.716Z,77.13
2023-01-22T08:41:57.287Z,77.76
2023-01-22T08:44:24.428Z,77.21
2023-01-22T08:46:51.121Z,78.83
2023-01-22T08:49:18.266Z,79.92
2023-01-22T08:51:44.995Z,81.80
2023-01-22T08:54:11.443Z,81.59
2023-01-22T08:56:37.877Z,80.40
2023-01-22T08:59:06.531Z,82.42
2023-01-22T09:01:33.511Z,83.05
2023-01-22T09:04:00.108Z,82.33
2023-01-22T09:06:27.211Z,84.00
2023-01-22T09:08:54.159Z,85.70
2023-01-22T09:11:20.663Z,86.45
2023-01-22T09:13:47.115Z,87.62
2023-01-22T09:16:13.614Z,88.01
2023-01-22T09:18:40.106Z,86.96
2023-01-22T09:21:08.236Z,87.79
2023-01-22T09:23:34.718Z,88.94
2023-01-22T09:26:01.262Z,89.99
2023-01-22T09:28:27.773Z,90.74
2023-01-22T09:30:54.299Z,89.65
2023-01-22T09:33:20.730Z,90.93
2023-01-22T09:35:47.167Z,91.63
2023-01-22T09:38:14.225Z,92.14
2023-01-22T09:40:48.346Z,91.62
2023-01-22T09:43:27.164Z,92.80
2023-01-22T09:45:55.908Z,92.41
2023-01-22T09:48:22.858Z,92.46
2023-01-22T09:50:50.693Z,94.35
2023-01-22T09:53:19.823Z,94.53
2023-01-22T09:55:48.039Z,96.34
2023-01-22T09:58:16.207Z,95.16
2023-01-22T10:00:51.645Z,95.47
2023-01-22T10:03:22.772Z,94.15
2023-01-22T10:05:52.923Z,94.79
2023-01-22T10:08:28.882Z,95.40
2023-01-22T10:10:55.367Z,96.30
2023-01-22T10:13:22.979Z,97.14
2023-01-22T10:15:50.576Z,97.44
2023-01-22T10:18:20.126Z,94.56
2023-01-22T10:20:47.038Z,93.90
2023-01-22T10:23:18.449Z,94.07
2023-01-22T10:25:44.908Z,92.87
2023-01-22T10:28:12.251Z,92.14
2023-01-22T10:30:46.056Z,91.69
2023-01-22T10:33:17.250Z,93.07
2023-01-22T10:35:46.496Z,93.44
2023-01-22T10:38:21.934Z,92.93
2023-01-22T10:40:52.423Z,93.07
2023-01-22T10:43:18.867Z,93.74
2023-01-22T10:45:52.031Z,94.18
2023-01-22T10:48:18.991Z,93.22
2023-01-22T10:50:46.067Z,93.94
2023-01-22T10:53:19.603Z,94.56
2023-01-22T10:55:51.411Z,93.11
2023-01-22T10:58:18.583Z,92.13
2023-01-22T11:00:54.937Z,93.24
2023-01-22T11:03:23.196Z,92.50
2023-01-22T11:05:55.116Z,92.78
2023-01-22T11:08:21.986Z,92.88
2023-01-22T11:10:56.807Z,89.60
2023-01-22T11:13:44.317Z,90.44
2023-01-22T11:16:18.268Z,91.46
2023-01-22T11:19:01.165Z,91.11
2023-01-22T11:21:39.087Z,92.20
2023-01-22T11:24:21.183Z,92.01
2023-01-22T11:26:50.507Z,90.51
2023-01-22T11:29:35.762Z,90.75
2023-01-22T11:32:02.180Z,90.99
2023-01-22T11:34:51.879Z,91.58
2023-01-22T11:37:29.821Z,90.55
2023-01-22T11:40:14.899Z,89.19
2023-01-22T11:42:56.623Z,88.45
2023-01-22T11:45:29.410Z,88.17
2023-01-22T11:47:55.833Z,89.02
2023-01-22T11:50:33.896Z,88.36
2023-01-22T11:53:15.722Z,86.87
2023-01-22T11:55:46.901Z,87.03
2023-01-22T11:58:22.586Z,86.34
2023-01-22T12:00:58.383Z,86.84
2023-01-22T12:03:33.850Z,87.06
2023-01-22T12:06:12.928Z,88.02
2023-01-22T12:08:57.996Z,86.59
2023-01-22T12:11:32.133Z,86.46
2023-01-22T12:14:17.172Z,84.20
2023-01-22T12:17:02.258Z,84.96
2023-01-22T12:19:37.587Z,83.26
2023-01-22T12:22:04.172Z,84.04
2023-01-22T12:24:36.801Z,85.61
2023-01-22T12:27:15.728Z,84.46
2023-01-22T12:29:48.443Z,83.47
2023-01-22T12:32:19.197Z,84.51
2023-01-22T12:34:51.523Z,82.36
2023-01-22T12:37:19.970Z,82.58
2023-01-22T12:40:07.152Z,82.25
2023-01-22T12:42:52.117Z,82.80
2023-01-22T12:45:38.801Z,82.44
2023-01-22T12:48:14.731Z,81.01
2023-01-22T12:50:54.904Z,82.05
2023-01-22T12:53:23.045Z,82.42
2023-01-22T12:56:03.808Z,80.58
2023-01-22T12:58:31.756Z,79.95
2023-01-22T13:01:03.283Z,80.43
2023-01-22T13:03:31.928Z,82.14
2023-01-22T13:05:59.762Z,80.74
2023-01-22T13:08:33.992Z,79.45
2023-01-22T13:11:01.854Z,80.72
2023-01-22T13:13:39.840Z,80.42
2023-01-22T13:16:16.954Z,79.67
2023-01-22T13:18:54.070Z,79.13
2023-01-22T13:21:25.931Z,79.78
2023-01-22T13:23:56.972Z,80.83
2023-01-22T13:26:27.091Z,79.61
2023-01-22T13:29:04.728Z,79.37
2023-01-22T13:31:32.867Z,79.78
2023-01-22T13:34:05.037Z,79.20
2023-01-22T13:36:31.500Z,78.53
2023-01-22T13:38:59.258Z,80.71
2023-01-22T13:41:27.387Z,82.38
2023-01-22T13:43:53.970Z,80.95
2023-01-22T13:46:20.587Z,78.83
2023-01-22T13:48:47.357Z,79.72
2023-01-22T13:51:18.414Z,78.87
2023-01-22T13:53:53.793Z,79.08
2023-01-22T13:56:22.565Z,80.37
2023-01-22T13:58:49.689Z,79.07
2023-01-22T14:01:34.922Z,78.19
2023-01-22T14:04:04.609Z,77.73
2023-01-22T14:06:41.909Z,76.69
2023-01-22T14:09:09.458Z,75.99
2023-01-22T14:11:41.026Z,75.88
2023-01-22T14:14:17.762Z,75.73
2023-01-22T14:16:44.484Z,76.29
2023-01-22T14:19:11.061Z,75.82
2023-01-22T14:21:37.663Z,76.18
2023-01-22T14:24:04.367Z,75.89
2023-01-22T14:26:31.115Z,73.30
2023-01-22T14:28:57.563Z,75.57
2023-01-22T14:31:24.069Z,76.41
2023-01-22T14:33:50.636Z,75.21
2023-01-22T14:36:18.478Z,74.45
2023-01-22T14:38:44.914Z,75.58
2023-01-22T14:41:11.326Z,75.92
2023-01-22T14:43:37.763Z,77.06
2023-01-22T14:46:06.824Z,75.60
2023-01-22T14:48:33.384Z,75.05
2023-01-22T14:50:59.831Z,76.91
2023-01-22T14:53:26.371Z,74.80
2023-01-22T14:55:52.839Z,74.74
2023-01-22T14:58:19.272Z,74.71
2023-01-22T15:00:45.766Z,74.92
2023-01-22T15:03:12.268Z,74.26
2023-01-22T15:05:38.710Z,75.72
2023-01-22T15:08:05.241Z,73.53
2023-01-22T15:10:31.915Z,72.62
2023-01-22T15:12:58.384Z,76.62
2023-01-22T15:15:26.926Z,79.74
2023-01-22T15:17:53.948Z,81.60
2023-01-22T15:20:21.387Z,85.99
2023-01-22T15:22:49.572Z,85.83
2023-01-22T15:25:16.251Z,87.10
2023-01-22T15:27:43.839Z,88.77
2023-01-22T15:30:11.016Z,90.27
2023-01-22T15:32:37.569Z,90.31
2023-01-22T15:35:04.218Z,91.74
2023-01-22T15:37:30.618Z,88.62
2023-01-22T15:39:57.072Z,90.23
2023-01-22T15:42:23.542Z,92.37
2023-01-22T15:44:49.961Z,93.73
2023-01-22T15:47:16.376Z,93.97
2023-01-22T15:49:43.091Z,90.09
2023-01-22T15:52:09.534Z,87.05
2023-01-22T15:54:35.962Z,91.53
2023-01-22T15:57:02.422Z,92.59
2023-01-22T15:59:28.976Z,93.01
2023-01-22T16:01:55.642Z,93.32
2023-01-22T16:04:22.099Z,94.16
2023-01-22T16:06:48.800Z,96.22
2023-01-22T16:09:15.248Z,95.69
2023-01-22T16:11:41.687Z,96.27
2023-01-22T16:14:08.168Z,97.61
2023-01-22T16:16:37.964Z,96.66
2023-01-22T16:19:05.976Z,97.49
2023-01-22T16:21:32.430Z,97.38
2023-01-22T16:23:59.753Z,97.84
2023-01-22T16:26:27.448Z,97.56
2023-01-22T16:28:55.259Z,97.23
2023-01-22T16:31:23.362Z,96.51
2023-01-22T16:33:54.640Z,97.13
2023-01-22T16:36:22.035Z,97.27
2023-01-22T16:38:48.953Z,97.77
2023-01-22T16:41:24.957Z,98.62
2023-01-22T16:43:53.117Z,96.86
2023-01-22T16:46:20.593Z,97.45
2023-01-22T16:48:47.440Z,98.47
2023-01-22T16:51:16.347Z,97.43
2023-01-22T16:53:42.847Z,97.62
2023-01-22T16:56:09.506Z,97.83
2023-01-22T16:58:36.939Z,98.47
2023-01-22T17:01:04.103Z,96.48
2023-01-22T17:03:30.747Z,96.66
2023-01-22T17:05:57.296Z,96.95
2023-01-22T17:08:24.235Z,98.33
2023-01-22T17:10:50.756Z,98.03
2023-01-22T17:13:17.306Z,97.59
2023-01-22T17:15:47.176Z,97.68
2023-01-22T17:18:13.881Z,98.58
2023-01-22T17:20:41.212Z,98.56
2023-01-22T17:23:09.659Z,100.00
2023-01-22T17:25:39.290Z,100.00
2023-01-22T17:28:05.817Z,99.70
2023-01-22T17:30:32.300Z,99.70
2023-01-22T17:32:58.737Z,100.00
2023-01-22T17:35:25.306Z,99.10
2023-01-22T17:37:51.775Z,98.82
2023-01-22T17:40:18.363Z,99.87
2023-01-22T17:42:44.787Z,99.79
2023-01-22T17:45:11.464Z,98.79
2023-01-22T17:47:37.980Z,99.24
2023-01-22T17:50:04.582Z,99.60
2023-01-22T17:52:31.070Z,99.48
2023-01-22T17:54:57.547Z,99.74
2023-01-22T17:57:23.972Z,100.00
2023-01-22T17:59:51.335Z,100.00
2023-01-22T18:02:17.821Z,100.00
2023-01-22T18:04:44.327Z,100.00
2023-01-22T18:07:10.791Z,100.00
2023-01-22T18:09:37.310Z,100.00
2023-01-22T18:12:03.908Z,100.00
2023-01-22T18:14:33.919Z,100.00
2023-01-22T18:17:01.227Z,100.00
2023-01-22T18:19:28.088Z,100.00
2023-01-22T18:21:54.558Z,98.60
2023-01-22T18:24:23.089Z,99.95
2023-01-22T18:26:49.975Z,100.00
2023-01-22T18:29:16.447Z,100.00
2023-01-22T18:31:44.330Z,99.55
2023-01-22T18:34:13.410Z,99.98
2023-01-22T18:36:40.426Z,100.00
2023-01-22T18:39:08.745Z,100.00
2023-01-22T18:41:36.353Z,100.00
2023-01-22T18:44:02.954Z,100.00
2023-01-22T18:46:31.335Z,100.00
2023-01-22T18:48:59.165Z,100.00
2023-01-22T18:51:26.608Z,100.00
2023-01-22T18:53:53.327Z,100.00
2023-01-22T18:56:19.948Z,100.00
2023-01-22T18:58:48.025Z,100.00
2023-01-22T19:01:15.858Z,100.00
2023-01-22T19:03:43.402Z,100.00
2023-01-22T19:06:14.494Z,100.00
2023-01-22T19:08:42.111Z,100.00
2023-01-22T19:11:08.848Z,100.00
2023-01-22T19:13:35.599Z,100.00
2023-01-22T19:16:03.241Z,100.00
2023-01-22T19:18:29.717Z,98.35
2023-01-22T19:21:01.117Z,99.06
2023-01-22T19:23:27.590Z,100.00
2023-01-22T19:25:56.987Z,100.00
2023-01-22T19:28:23.514Z,100.00
2023-01-22T19:30:50.095Z,100.00
2023-01-22T19:33:16.546Z,100.00
2023-01-22T19:35:49.237Z,100.00
2023-01-22T19:38:15.979Z,100.00
2023-01-22T19:40:45.470Z,100.00
2023-01-22T19:43:12.162Z,100.00
2023-01-22T19:45:38.604Z,100.00
2023-01-22T19:48:06.813Z,100.00
2023-01-22T19:50:33.839Z,100.00
2023-01-22T19:53:00.363Z,100.00
2023-01-22T19:55:26.947Z,100.00
2023-01-22T19:57:57.010Z,100.00
2023-01-22T20:00:23.532Z,100.00
2023-01-22T20:02:50.048Z,100.00
2023-01-22T20:05:20.657Z,100.00
2023-01-22T20:07:47.825Z,100.00
2023-01-22T20:10:15.429Z,100.00
2023-01-22T20:12:43.248Z,100.00
2023-01-22T20:15:10.035Z,100.00
2023-01-22T20:17:37.126Z,100.00
2023-01-22T20:20:04.998Z,100.00
2023-01-22T20:22:31.647Z,100.00
2023-01-22T20:24:58.068Z,100.00
2023-01-22T20:27:24.927Z,100.00
2023-01-22T20:29:51.451Z,100.00
2023-01-22T20:32:18.492Z,100.00
2023-01-22T20:34:48.805Z,100.00
2023-01-22T20:37:15.383Z,100.00
2023-01-22T20:39:41.850Z,100.00
2023-01-22T20:42:08.305Z,99.65
2023-01-22T20:44:35.551Z,99.54
2023-01-22T20:47:02.026Z,98.85
2023-01-22T20:49:28.925Z,98.72
2023-01-22T20:51:55.455Z,98.19
2023-01-22T20:54:21.993Z,98.14
2023-01-22T20:56:48.471Z,100.00
2023-01-22T20:59:17.290Z,100.00
2023-01-22T21:01:43.997Z,100.00
2023-01-22T21:04:11.169Z,100.00
2023-01-22T21:06:39.317Z,100.00
2023-01-22T21:09:06.609Z,100.00
2023-01-22T21:11:33.902Z,100.00
2023-01-22T21:14:01.132Z,100.00
2023-01-22T21:16:31.168Z,100.00
2023-01-22T21:18:59.131Z,100.00
2023-01-22T21:21:25.893Z,100.00
2023-01-22T21:23:53.147Z,100.00
2023-01-22T21:26:22.835Z,100.00
2023-01-22T21:28:50.972Z,100.00
2023-01-22T21:31:19.119Z,100.00
2023-01-22T21:33:46.160Z,100.00
2023-01-22T21:36:13.188Z,100.00
2023-01-22T21:38:39.864Z,100.00
2023-01-22T21:41:12.464Z,100.00
2023-01-22T21:43:58.640Z,98.88
2023-01-22T21:46:25.642Z,98.88
2023-01-22T21:48:58.255Z,99.73
2023-01-22T21:51:28.643Z,100.00
2023-01-22T21:53:56.237Z,100.00
2023-01-22T21:56:23.099Z,100.00
2023-01-22T21:58:50.010Z,100.00
2023-01-22T22:01:18.228Z,100.00
2023-01-22T22:03:44.800Z,100.00
2023-01-22T22:06:11.558Z,100.00
2023-01-22T22:08:38.509Z,100.00
2023-01-22T22:11:05.172Z,100.00
2023-01-22T22:13:32.744Z,100.00
2023-01-22T22:16:00.232Z,100.00
2023-01-22T22:18:26.679Z,100.00
2023-01-22T22:20:53.201Z,100.00
2023-01-22T22:23:19.615Z,100.00
2023-01-22T22:25:47.564Z,100.00
2023-01-22T22:28:14.428Z,100.00
2023-01-22T22:30:40.889Z,100.00
2023-01-22T22:33:07.367Z,100.00
2023-01-22T22:35:33.786Z,100.00
2023-01-22T22:38:00.239Z,100.00
2023-01-22T22:40:26.689Z,100.00
2023-01-22T22:42:53.617Z,100.00
2023-01-22T22:45:20.104Z,100.00
2023-01-22T22:47:46.542Z,100.00
2023-01-22T22:50:13.035Z,100.00
2023-01-22T22:52:39.474Z,100.00
2023-01-22T22:55:06.267Z,100.00
2023-01-22T22:57:32.703Z,100.00
2023-01-22T22:59:59.714Z,100.00
2023-01-22T23:02:26.203Z,100.00
2023-01-22T23:04:52.610Z,100.00
2023-01-22T23:07:19.074Z,100.00
2023-01-22T23:09:45.536Z,100.00
2023-01-22T23:12:11.978Z,100.00
2023-01-22T23:14:38.419Z,100.00
2023-01-22T23:17:04.885Z,100.00
2023-01-22T23:19:31.618Z,100.00
2023-01-22T23:21:59.387Z,100.00
2023-01-22T23:24:25.974Z,100.00
2023-01-22T23:26:52.585Z,100.00
2023-01-22T23:29:22.456Z,100.00
2023-01-22T23:31:49.048Z,100.00
2023-01-22T23:34:16.961Z,100.00
2023-01-22T23:36:45.131Z,100.00
2023-01-22T23:39:15.925Z,100.00
2023-01-22T23:41:42.908Z,100.00
2023-01-22T23:44:09.439Z,100.00
2023-01-22T23:46:36.381Z,100.00
2023-01-22T23:49:04.446Z,100.00
2023-01-22T23:51:31.527Z,100.00
2023-01-22T23:53:58.124Z,100.00
2023-01-22T23:56:26.094Z,100.00
2023-01-22T23:58:53.758Z,100.00
